メインページ
METAR-TAF:

METAR-TAF

空港 :

調布, 日本

調布飛行場

緯度: 35-40N, 経度: 139-32E, 海抜: 41m

現時点の気象観測

当レポートは16時間41分前の07:00(UTC)に作成
の風 13kt
気温 7°C
湿度 19%
気圧 1017 hPa
視程10km以上
高度3000ftの雲はほとんどない

METAR: RJTF 180700Z 01013KT 9999 FEW030 07/M15 Q1017

時間: 08:41 (23:41 UTC)


TAF: 見つかりません

4,000以上の空港の気象観測と天気予報(METAR報とTAF報)

利用可能な観測所は地図上に黄色い丸と赤い丸で示す。

丸の上にカーソルを重ねると観測所名を参照できる。

次にクリックすると気象観測と天気予報を参照できる。

マップの切り替え:黒色「×」印の緑ボタンをクリックして拡大、「-」印の緑ボタンをクリックして縮小、緑色の三角印をクリックして隣りの地図に切り替え


METAR-TAF: